Time;durP1;ratioP1;P1;durP2;ratioP2;P2;SDS_P1;SDS_P2;PMS_P1;PMS_P2;Temp;Humidity;BMP_temperature;BMP_pressure;BME280_temperature;BME280_humidity;BME280_pressure;Samples;Min_cycle;Max_cycle;Signal;HPM_P1;HPM_P2
2023/01/07 00:01:38;;;;;;;4.53;3.20;;;;;;;5.73;91.35;100183.53;5114730;28;20108;-65
2023/01/07 00:04:10;;;;;;;5.95;2.67;;;;;;;5.73;91.75;100183.53;5115047;28;20468;-65
2023/01/07 00:06:41;;;;;;;6.05;1.92;;;;;;;5.71;91.31;100175.00;5114673;28;20101;-65
2023/01/07 00:09:15;;;;;;;6.13;3.72;;;;;;;5.73;91.43;100175.06;5115020;28;20135;-65
2023/01/07 00:11:45;;;;;;;6.30;5.78;;;;;;;5.72;91.55;100181.81;5114603;28;20104;-65
2023/01/07 00:14:15;;;;;;;5.68;3.33;;;;;;;5.73;91.35;100188.59;5113483;28;20476;-66
2023/01/07 00:16:44;;;;;;;3.28;2.97;;;;;;;5.75;91.61;100186.09;5114874;28;20047;-65
2023/01/07 00:19:15;;;;;;;3.00;2.70;;;;;;;5.75;91.17;100183.56;5114393;28;20108;-65
2023/01/07 00:21:44;;;;;;;3.08;2.40;;;;;;;5.76;91.40;100183.59;5114432;28;20043;-65
2023/01/07 00:24:13;;;;;;;6.03;3.95;;;;;;;5.76;91.93;100182.75;5114998;28;20464;-65
2023/01/07 00:26:44;;;;;;;3.63;3.20;;;;;;;5.74;91.30;100186.91;5114375;28;20055;-65
2023/01/07 00:29:13;;;;;;;3.37;3.07;;;;;;;5.73;91.53;100188.59;5114281;28;20055;-65
2023/01/07 00:31:43;;;;;;;;;;;;;;;5.74;91.71;100181.84;5114862;28;20497;-65
2023/01/07 00:34:12;;;;;;;1.67;1.55;;;;;;;5.74;91.66;100175.09;5114270;28;19924;-65
2023/01/07 00:36:43;;;;;;;1.43;1.33;;;;;;;5.74;91.70;100176.78;5113023;28;20520;-65
2023/01/07 00:39:15;;;;;;;1.02;0.98;;;;;;;5.76;91.37;100173.47;5114111;28;20074;-65
2023/01/07 00:42:53;;;;;;;2.22;2.03;;;;;;;5.73;91.28;100168.34;5114432;28;20047;-65
2023/01/07 00:44:36;;;;;;;2.58;2.20;;;;;;;5.69;91.30;100168.19;5113890;28;20040;-65
2023/01/07 00:47:07;;;;;;;4.32;2.92;;;;;;;5.67;91.92;100177.44;5112953;28;20051;-65
2023/01/07 00:49:35;;;;;;;3.20;1.85;;;;;;;5.66;91.71;100176.59;5113063;28;20097;-65
2023/01/07 00:52:04;;;;;;;7.10;1.85;;;;;;;5.65;91.46;100181.59;5113976;28;20044;-65
2023/01/07 00:54:33;;;;;;;1.42;1.33;;;;;;;5.66;91.96;100180.78;5112418;28;20097;-65
2023/01/07 00:57:02;;;;;;;1.33;1.23;;;;;;;5.61;91.50;100195.00;5113990;28;20097;-65
2023/01/07 00:59:31;;;;;;;2.23;2.10;;;;;;;5.53;91.66;100183.78;5112752;28;20074;-65
2023/01/07 01:02:00;;;;;;;1.30;1.20;;;;;;;5.45;91.95;100196.25;5114265;28;20053;-65
2023/01/07 01:04:31;;;;;;;4.85;3.67;;;;;;;5.38;91.97;100185.09;5112927;28;20785;-65
2023/01/07 01:06:59;;;;;;;2.85;2.65;;;;;;;5.32;91.37;100195.06;5113915;28;20126;-65
2023/01/07 01:09:29;;;;;;;3.40;3.10;;;;;;;5.24;91.43;100201.56;5114124;28;20118;-65
2023/01/07 01:11:59;;;;;;;1.70;1.60;;;;;;;5.14;91.47;100199.56;5112590;28;20130;-65
2023/01/07 01:14:27;;;;;;;4.70;3.33;;;;;;;5.03;91.11;100195.03;5113710;28;20088;-65
2023/01/07 01:16:56;;;;;;;2.28;1.85;;;;;;;4.90;91.02;100191.25;5113779;28;20044;-65
2023/01/07 01:19:25;;;;;;;4.07;2.95;;;;;;;4.80;91.05;100199.38;5112522;28;20052;-65
2023/01/07 01:21:55;;;;;;;1.83;1.73;;;;;;;4.77;90.85;100196.78;5114020;28;20401;-65
2023/01/07 01:24:24;;;;;;;2.50;2.30;;;;;;;4.77;91.30;100196.78;5114061;28;20035;-65
2023/01/07 01:26:53;;;;;;;3.53;2.22;;;;;;;4.76;91.08;100197.56;5114533;28;20127;-65
2023/01/07 01:29:22;;;;;;;8.53;2.77;;;;;;;4.68;90.91;100201.53;5113963;28;20389;-65
2023/01/07 01:31:51;;;;;;;3.88;1.67;;;;;;;4.65;91.34;100198.94;5113951;28;20071;-65
2023/01/07 01:34:21;;;;;;;1.52;1.42;;;;;;;4.60;91.00;100192.88;5113567;28;20036;-65
2023/01/07 01:36:50;;;;;;;2.45;2.08;;;;;;;4.56;91.26;100188.50;5113571;28;20036;-65
2023/01/07 01:39:20;;;;;;;2.63;2.20;;;;;;;4.54;90.98;100197.72;5113809;28;20059;-65
2023/01/07 01:41:49;;;;;;;3.28;2.97;;;;;;;4.48;91.10;100200.06;5113543;28;20288;-65
2023/01/07 01:44:35;;;;;;;3.50;1.35;;;;;;;4.48;91.04;100192.50;5112273;28;20066;-65
2023/01/07 01:47:14;;;;;;;2.58;2.38;;;;;;;4.48;91.03;100187.44;5113846;28;20486;-65
2023/01/07 01:49:48;;;;;;;7.30;3.45;;;;;;;4.37;90.74;100188.75;5113487;28;20044;-65
2023/01/07 01:52:20;;;;;;;2.38;2.17;;;;;;;4.28;90.81;100184.25;5112293;28;20089;-65
2023/01/07 01:54:55;;;;;;;9.02;2.85;;;;;;;4.30;90.88;100195.28;5113255;28;20058;-65
2023/01/07 01:57:28;;;;;;;2.53;2.25;;;;;;;4.26;90.78;100185.88;5112695;28;20359;-65
2023/01/07 01:59:59;;;;;;;1.60;1.50;;;;;;;4.25;90.64;100193.44;5113275;28;20047;-65
2023/01/07 02:02:34;;;;;;;2.65;1.85;;;;;;;4.26;90.69;100195.13;5117017;28;20096;-66
2023/01/07 02:05:05;;;;;;;5.00;4.55;;;;;;;4.13;90.89;100191.34;5113889;28;20040;-65
2023/01/07 02:07:33;;;;;;;30.95;4.47;;;;;;;4.11;91.34;100190.44;5116974;28;20058;-65
2023/01/07 02:10:12;;;;;;;5.30;4.13;;;;;;;4.04;90.99;100184.31;5115552;28;20043;-65
2023/01/07 02:13:03;;;;;;;1.50;1.40;;;;;;;3.98;90.94;100179.06;5117170;28;20048;-65
2023/01/07 02:15:44;;;;;;;4.38;2.65;;;;;;;3.94;90.91;100172.19;5114445;28;20401;-65
2023/01/07 02:18:29;;;;;;;4.32;1.83;;;;;;;3.94;90.68;100171.34;5116843;28;20044;-65
2023/01/07 02:21:11;;;;;;;1.73;1.63;;;;;;;4.00;91.37;100172.41;5115522;28;20097;-65
2023/01/07 02:24:09;;;;;;;2.05;1.95;;;;;;;4.00;91.27;100172.41;5116712;28;20044;-65
2023/01/07 02:27:03;;;;;;;3.35;2.30;;;;;;;4.03;90.76;100162.41;5115429;28;20058;-65
2023/01/07 02:30:02;;;;;;;1.08;1.02;;;;;;;4.07;91.38;100169.28;5098641;28;20093;-65
2023/01/07 02:32:54;;;;;;;3.30;1.98;;;;;;;4.11;91.39;100164.31;5115460;28;20523;-65
2023/01/07 02:35:36;;;;;;;3.35;3.05;;;;;;;4.12;90.92;100181.19;5114661;28;20082;-65
2023/01/07 02:38:15;;;;;;;2.17;2.05;;;;;;;4.12;91.61;100181.19;5115296;28;20127;-65
2023/01/07 02:40:56;;;;;;;2.38;2.22;;;;;;;4.08;91.17;100183.59;5115180;28;20093;-65
2023/01/07 02:43:37;;;;;;;3.35;3.05;;;;;;;3.99;91.08;100185.84;5115193;28;20043;-65
2023/01/07 02:46:17;;;;;;;5.90;3.35;;;;;;;3.96;91.08;100178.16;5115090;28;20051;-65
2023/01/07 02:48:47;;;;;;;2.80;2.42;;;;;;;3.97;91.17;100176.50;5116581;28;20051;-66
2023/01/07 02:51:16;;;;;;;2.78;2.58;;;;;;;3.97;91.04;100182.41;5116523;28;20093;-65
2023/01/07 02:53:48;;;;;;;2.67;1.65;;;;;;;3.95;91.43;100178.13;5115273;28;20098;-65
2023/01/07 02:56:31;;;;;;;5.72;3.55;;;;;;;3.85;91.27;100171.91;5114863;28;20580;-65
2023/01/07 02:59:29;;;;;;;1.98;1.80;;;;;;;3.74;91.54;100174.88;5116362;28;20382;-65
2023/01/07 03:02:24;;;;;;;3.17;1.98;;;;;;;3.68;91.59;100178.03;5115841;28;20078;-65
2023/01/07 03:05:19;;;;;;;2.30;2.13;;;;;;;3.76;91.67;100176.66;5105887;28;20051;-65
2023/01/07 03:08:00;;;;;;;2.10;1.55;;;;;;;3.81;91.61;100175.13;5115849;28;20051;-65
2023/01/07 03:10:40;;;;;;;1.73;1.58;;;;;;;3.78;91.68;100180.06;5114991;28;20071;-65
2023/01/07 03:13:17;;;;;;;2.47;1.63;;;;;;;3.74;91.45;100185.81;5115779;28;20051;-65
2023/01/07 03:15:53;;;;;;;7.03;2.72;;;;;;;3.74;91.56;100183.28;5114572;28;20047;-65
2023/01/07 03:18:27;;;;;;;1.42;1.33;;;;;;;3.68;91.69;100188.13;5114430;28;20048;-65
2023/01/07 03:21:05;;;;;;;2.97;1.92;;;;;;;3.69;91.39;100181.44;5115540;28;20093;-66
2023/01/07 03:23:39;;;;;;;2.08;1.90;;;;;;;3.75;91.24;100185.00;5115521;28;20047;-65
2023/01/07 03:26:10;;;;;;;2.10;1.95;;;;;;;3.78;91.75;100190.16;5115561;28;20054;-65
2023/01/07 03:28:42;;;;;;;4.45;4.05;;;;;;;3.74;91.10;100198.41;5114233;28;20051;-65
2023/01/07 03:31:15;;;;;;;25.23;2.80;;;;;;;3.76;92.00;100195.97;5114230;28;20036;-65
2023/01/07 03:33:51;;;;;;;6.35;4.13;;;;;;;3.82;92.07;100202.06;5114161;28;20516;-65
2023/01/07 03:36:25;;;;;;;1.35;1.25;;;;;;;3.83;91.49;100191.19;5114452;28;20074;-65
2023/01/07 03:38:57;;;;;;;1.65;1.55;;;;;;;3.78;92.01;100190.16;5115223;28;20047;-65
2023/01/07 03:44:06;;;;;;;3.42;3.08;;;;;;;3.81;91.80;100190.28;5114325;28;20134;-65
2023/01/07 03:46:37;;;;;;;2.53;1.90;;;;;;;3.90;92.01;100184.69;5113893;28;20031;-65
2023/01/07 03:49:07;;;;;;;5.72;2.72;;;;;;;3.93;92.38;100173.03;5115331;28;20055;-65
2023/01/07 03:51:39;;;;;;;1.67;1.58;;;;;;;3.93;92.24;100180.59;5115343;28;20500;-65
2023/01/07 03:54:08;;;;;;;1.92;1.77;;;;;;;3.96;91.79;100180.69;5113575;28;20079;-65
2023/01/07 03:56:37;;;;;;;1.65;1.55;;;;;;;3.98;92.34;100179.06;5115228;28;20051;-65
2023/01/07 03:59:06;;;;;;;3.30;2.40;;;;;;;3.97;92.17;100184.94;5114813;28;20067;-65
2023/01/07 04:01:35;;;;;;;2.00;1.80;;;;;;;3.89;92.36;100167.78;5113759;28;20107;-66
2023/01/07 04:04:04;;;;;;;3.95;2.60;;;;;;;3.92;92.16;100188.97;5113519;28;20070;-65
2023/01/07 04:06:33;;;;;;;1.80;1.65;;;;;;;3.95;91.98;100189.09;5114980;28;20071;-65
2023/01/07 04:09:04;;;;;;;3.58;3.28;;;;;;;3.95;92.67;100178.97;5113426;28;20047;-65
2023/01/07 04:11:34;;;;;;;2.00;1.90;;;;;;;3.94;92.71;100181.44;5114624;28;20039;-65
2023/01/07 04:14:03;;;;;;;6.30;5.32;;;;;;;3.94;91.99;100182.31;5114555;28;20067;-66
2023/01/07 04:16:32;;;;;;;3.38;2.97;;;;;;;3.88;92.80;100182.09;5113345;28;20100;-65
2023/01/07 04:19:01;;;;;;;2.88;2.67;;;;;;;3.91;92.40;100182.19;5114498;28;20048;-65
2023/01/07 04:21:30;;;;;;;0.60;0.60;;;;;;;3.79;92.72;100176.72;5114616;28;20059;-66
2023/01/07 04:23:59;;;;;;;1.97;1.73;;;;;;;3.80;92.47;100178.44;5114322;28;20062;-65
2023/01/07 04:26:30;;;;;;;2.72;2.53;;;;;;;3.83;92.39;100173.53;5113216;28;20050;-66
2023/01/07 04:29:00;;;;;;;0.85;0.85;;;;;;;3.73;92.26;100166.44;5113426;28;20126;-65
2023/01/07 04:31:29;;;;;;;3.33;2.15;;;;;;;3.65;92.43;100162.78;5113454;28;20054;-66
2023/01/07 04:33:58;;;;;;;7.57;3.42;;;;;;;3.60;92.14;100164.28;5113087;28;20063;-66
2023/01/07 04:36:27;;;;;;;2.53;2.33;;;;;;;3.55;92.41;100165.78;5113099;28;20401;-65
2023/01/07 04:38:56;;;;;;;5.20;3.70;;;;;;;3.51;91.97;100158.94;5114162;28;20040;-65
2023/01/07 04:41:24;;;;;;;2.13;1.83;;;;;;;3.46;92.58;100155.38;5114017;28;20067;-65
2023/01/07 04:43:55;;;;;;;;;;;;;;;3.45;91.96;100148.63;5113353;28;20134;-65
2023/01/07 04:46:24;;;;;;;3.97;2.67;;;;;;;3.53;92.45;100167.41;5114411;28;19927;-65
2023/01/07 04:48:53;;;;;;;0.98;0.98;;;;;;;3.61;92.08;100166.00;5113213;28;20066;-65
2023/01/07 04:51:23;;;;;;;;;;;;;;;3.63;92.17;100166.06;5113479;28;20473;-65
2023/01/07 04:53:52;;;;;;;1.67;1.58;;;;;;;3.64;92.48;100166.13;5112589;28;19920;-65
2023/01/07 04:56:21;;;;;;;1.07;1.03;;;;;;;3.63;92.08;100164.41;5112872;28;20058;-65
2023/01/07 04:58:50;;;;;;;8.05;2.90;;;;;;;3.65;92.62;100172.00;5114254;28;20750;-66
2023/01/07 05:01:21;;;;;;;1.48;1.38;;;;;;;3.68;92.05;100173.00;5113776;28;20040;-65
2023/01/07 05:03:50;;;;;;;1.33;1.23;;;;;;;3.71;92.13;100165.53;5096111;28;20040;-65
2023/01/07 05:06:20;;;;;;;4.55;2.50;;;;;;;3.65;92.39;100157.72;5113918;28;20044;-65
2023/01/07 05:08:49;;;;;;;1.85;1.75;;;;;;;3.58;92.51;100162.50;5112684;28;20077;-65
2023/01/07 05:11:20;;;;;;;1.38;1.15;;;;;;;3.56;91.82;100170.03;5112604;28;20054;-66
2023/01/07 05:13:53;;;;;;;1.63;1.52;;;;;;;3.55;92.22;100170.00;5114180;28;20564;-65
2023/01/07 05:16:26;;;;;;;1.00;0.93;;;;;;;3.58;92.38;100175.13;5113790;28;20044;-65
2023/01/07 05:18:58;;;;;;;2.47;2.03;;;;;;;3.62;92.67;100165.22;5112653;28;20044;-65
2023/01/07 05:21:28;;;;;;;2.17;1.98;;;;;;;3.61;91.99;100150.88;5113931;28;20048;-65
2023/01/07 05:23:57;;;;;;;3.77;3.30;;;;;;;3.68;92.23;100162.88;5114071;28;20036;-66
2023/01/07 05:26:25;;;;;;;5.30;2.97;;;;;;;3.72;92.79;100157.13;5113709;28;20046;-65
2023/01/07 05:28:55;;;;;;;6.90;3.35;;;;;;;3.69;92.12;100166.28;5113690;28;20058;-65
2023/01/07 05:31:26;;;;;;;4.00;2.72;;;;;;;3.70;91.97;100168.84;5113928;28;20109;-66
2023/01/07 05:33:55;;;;;;;4.60;3.25;;;;;;;3.69;92.52;100168.81;5112476;28;20496;-65
2023/01/07 05:36:24;;;;;;;;;;;;;;;3.70;91.98;100173.03;5114868;28;20051;-65
2023/01/07 05:38:54;;;;;;;1.38;1.25;;;;;;;3.71;92.16;100178.16;5118145;28;19920;-66
2023/01/07 05:41:24;;;;;;;1.67;1.58;;;;;;;3.70;92.47;100176.41;5116261;28;20036;-66
2023/01/07 05:43:53;;;;;;;0.90;0.90;;;;;;;3.72;92.40;100168.91;5116288;28;20040;-66
2023/01/07 05:46:21;;;;;;;3.58;3.28;;;;;;;3.72;93.00;100173.97;5117457;28;20074;-66
2023/01/07 05:48:53;;;;;;;2.67;2.40;;;;;;;3.72;92.45;100174.78;5117456;28;20046;-65
2023/01/07 05:51:21;;;;;;;3.50;3.22;;;;;;;3.75;92.20;100176.56;5117337;28;20280;-65
2023/01/07 05:53:50;;;;;;;4.13;3.83;;;;;;;3.74;92.58;100177.41;5116946;28;20060;-66
2023/01/07 05:56:19;;;;;;;2.28;2.08;;;;;;;3.71;92.55;100178.16;5117901;28;20050;-65
2023/01/07 05:58:48;;;;;;;3.70;1.90;;;;;;;3.70;92.85;100171.38;5117194;28;20122;-66
2023/01/07 06:01:16;;;;;;;2.23;2.03;;;;;;;3.73;92.60;100166.44;5117072;28;20036;-65
2023/01/07 06:03:45;;;;;;;2.70;2.50;;;;;;;3.77;93.07;100165.72;5117370;28;20566;-66
2023/01/07 06:06:15;;;;;;;2.70;1.73;;;;;;;3.82;92.94;100165.88;5117007;28;20134;-65
2023/01/07 06:08:44;;;;;;;4.18;3.83;;;;;;;3.80;93.12;100162.44;5117073;28;20047;-66
2023/01/07 06:11:13;;;;;;;1.88;1.77;;;;;;;3.78;93.09;100169.97;5116898;28;20070;-65
2023/01/07 06:13:42;;;;;;;1.23;1.13;;;;;;;3.80;93.36;100163.31;5117195;28;20066;-65
2023/01/07 06:16:15;;;;;;;2.10;1.93;;;;;;;3.84;92.99;100169.34;5116847;28;20071;-66
2023/01/07 06:18:44;;;;;;;2.25;2.05;;;;;;;3.89;93.34;100163.59;5117193;28;20047;-66
2023/01/07 06:21:14;;;;;;;3.33;2.67;;;;;;;3.93;92.86;100175.56;5117311;28;20454;-66
2023/01/07 06:23:45;;;;;;;3.40;3.13;;;;;;;3.95;93.09;100178.97;5116949;28;20484;-65
2023/01/07 06:26:14;;;;;;;1.60;1.50;;;;;;;3.96;92.93;100173.09;5116998;28;20405;-65
2023/01/07 06:28:42;;;;;;;2.28;1.95;;;;;;;3.92;93.15;100178.88;5116868;28;20390;-65
2023/01/07 06:31:12;;;;;;;3.17;1.65;;;;;;;3.90;93.39;100184.69;5116889;28;20126;-65
2023/01/07 06:33:41;;;;;;;1.85;1.73;;;;;;;3.91;93.41;100192.28;5116807;28;20450;-65
2023/01/07 06:36:10;;;;;;;1.50;1.40;;;;;;;3.94;92.87;100182.31;5116825;27;20089;-66
2023/01/07 06:38:40;;;;;;;1.90;1.80;;;;;;;3.99;93.02;100185.84;5116435;28;20071;-66
2023/01/07 06:41:11;;;;;;;1.30;1.20;;;;;;;4.03;93.48;100191.88;5116385;28;20071;-65
2023/01/07 06:43:39;;;;;;;9.23;4.30;;;;;;;4.06;93.22;100194.47;5116628;27;20039;-66
2023/01/07 06:46:08;;;;;;;2.67;2.43;;;;;;;4.08;93.52;100195.38;5115986;28;20043;-65
2023/01/07 06:48:37;;;;;;;2.07;1.90;;;;;;;4.12;93.21;100206.44;5116233;28;20036;-65
2023/01/07 06:51:06;;;;;;;1.13;1.05;;;;;;;4.14;93.31;100204.81;5116149;28;20370;-65
2023/01/07 06:53:35;;;;;;;2.33;2.13;;;;;;;4.16;93.25;100203.22;5115997;28;20508;-66
2023/01/07 06:56:03;;;;;;;1.00;0.90;;;;;;;4.11;93.48;100195.47;5116400;28;20340;-65
2023/01/07 06:58:34;;;;;;;3.67;3.37;;;;;;;4.08;93.41;100201.28;5115181;28;20044;-65
2023/01/07 07:01:06;;;;;;;2.28;2.08;;;;;;;4.11;93.32;100203.06;5116036;28;20287;-66
2023/01/07 07:03:35;;;;;;;1.67;1.58;;;;;;;4.16;93.52;100208.25;5115864;28;20044;-65
2023/01/07 07:06:05;;;;;;;2.10;1.93;;;;;;;4.20;93.67;100210.94;5116266;28;20142;-65
2023/01/07 07:08:33;;;;;;;7.00;2.83;;;;;;;4.21;93.41;100211.78;5115760;28;20043;-65
2023/01/07 07:11:02;;;;;;;1.63;1.53;;;;;;;4.21;93.90;100214.31;5116127;28;20213;-65
2023/01/07 07:13:32;;;;;;;2.45;2.25;;;;;;;4.20;94.03;100210.09;5115700;28;20279;-65
2023/01/07 07:16:01;;;;;;;2.45;2.25;;;;;;;4.21;93.83;100217.72;5116024;28;20050;-65
2023/01/07 07:18:30;;;;;;;3.60;2.43;;;;;;;4.23;94.04;100210.19;5115687;27;20063;-65
2023/01/07 07:20:59;;;;;;;5.07;3.00;;;;;;;4.26;94.03;100215.34;5115862;28;20268;-65
2023/01/07 07:23:28;;;;;;;1.67;1.50;;;;;;;4.28;93.71;100213.72;5115477;28;20553;-65
2023/01/07 07:25:57;;;;;;;2.77;2.20;;;;;;;4.26;93.87;100210.28;5115434;28;20123;-65
2023/01/07 07:28:25;;;;;;;3.20;2.90;;;;;;;4.23;93.69;100207.66;5115547;28;20036;-66
2023/01/07 07:30:56;;;;;;;2.77;2.13;;;;;;;4.22;93.77;100203.44;5115344;28;20067;-66
2023/01/07 07:33:24;;;;;;;1.77;1.65;;;;;;;4.22;94.30;100211.88;5115596;28;20071;-65
2023/01/07 07:35:54;;;;;;;1.45;1.35;;;;;;;4.22;93.55;100214.41;5115351;28;20122;-66
2023/01/07 07:38:23;;;;;;;3.75;2.20;;;;;;;4.19;93.57;100219.34;5115543;28;20093;-66
2023/01/07 07:40:52;;;;;;;1.20;1.20;;;;;;;4.17;93.96;100215.91;5115177;28;20039;-65
2023/01/07 07:43:21;;;;;;;2.27;2.07;;;;;;;4.18;94.13;100216.75;5115244;28;20038;-65
2023/01/07 07:45:49;;;;;;;1.08;0.98;;;;;;;4.19;94.00;100208.38;5115143;28;20101;-65
2023/01/07 07:48:20;;;;;;;2.63;2.33;;;;;;;4.20;93.71;100212.63;5115016;28;20131;-65
2023/01/07 07:50:51;;;;;;;2.13;1.92;;;;;;;4.21;94.16;100214.31;5114924;28;20280;-65
2023/01/07 07:53:20;;;;;;;2.38;2.17;;;;;;;4.25;93.86;100213.63;5115006;28;20039;-65
2023/01/07 07:55:49;;;;;;;4.47;4.13;;;;;;;4.27;94.23;100207.78;5114730;28;20101;-66
2023/01/07 07:58:18;;;;;;;5.82;2.55;;;;;;;4.30;94.29;100207.03;5114154;27;20040;-65
2023/01/07 08:00:47;;;;;;;1.48;1.38;;;;;;;4.39;94.23;100199.78;5114471;28;20076;-65
2023/01/07 08:03:16;;;;;;;1.10;1.02;;;;;;;4.41;93.90;100206.59;5114954;28;20126;-65
2023/01/07 08:05:49;;;;;;;2.95;2.33;;;;;;;4.42;93.98;100207.44;5114703;28;20040;-65
2023/01/07 08:08:17;;;;;;;2.22;1.95;;;;;;;4.43;94.14;100204.13;5114644;28;20074;-65
2023/01/07 08:10:46;;;;;;;0.98;0.98;;;;;;;4.43;94.01;100201.59;5114691;28;20067;-66
2023/01/07 08:13:15;;;;;;;1.30;1.20;;;;;;;4.45;94.31;100197.44;5114847;28;20135;-65
2023/01/07 08:15:44;;;;;;;2.58;2.13;;;;;;;4.51;94.15;100205.22;5114639;28;20069;-65
2023/01/07 08:18:12;;;;;;;0.85;0.85;;;;;;;4.44;94.30;100199.09;5114451;28;20051;-65
2023/01/07 08:20:41;;;;;;;1.08;1.08;;;;;;;4.40;94.18;100204.00;5114825;28;20119;-65
2023/01/07 08:23:12;;;;;;;0.88;0.88;;;;;;;4.34;94.20;100199.63;5114247;28;20103;-65
2023/01/07 08:25:40;;;;;;;0.60;0.60;;;;;;;4.30;93.82;100186.81;5114702;28;20043;-65
2023/01/07 08:28:10;;;;;;;2.35;2.15;;;;;;;4.29;94.14;100196.09;5114688;28;20048;-65
2023/01/07 08:30:39;;;;;;;1.73;1.40;;;;;;;4.26;94.22;100190.06;5114864;28;20392;-65
2023/01/07 08:33:08;;;;;;;4.90;2.88;;;;;;;4.17;93.98;100190.66;5114848;28;20122;-65
2023/01/07 08:35:38;;;;;;;3.20;2.30;;;;;;;4.28;94.45;100193.50;5100157;28;20044;-65
2023/01/07 08:38:08;;;;;;;1.10;1.10;;;;;;;4.35;94.60;100190.38;5093784;28;20516;-65
2023/01/07 08:40:39;;;;;;;2.47;2.28;;;;;;;4.42;94.66;100194.81;5093882;28;20493;-65
2023/01/07 08:43:08;;;;;;;3.65;2.17;;;;;;;4.40;95.54;100188.84;5105931;28;20049;-65
2023/01/07 08:45:38;;;;;;;0.70;0.65;;;;;;;4.44;94.90;100205.84;5114109;28;20039;-65
2023/01/07 08:48:07;;;;;;;2.17;1.87;;;;;;;4.46;95.01;100201.69;5114189;28;20382;-65
2023/01/07 08:50:36;;;;;;;1.60;1.50;;;;;;;4.47;94.95;100205.91;5114346;28;20603;-65
2023/01/07 08:53:04;;;;;;;0.95;0.95;;;;;;;4.42;95.22;100199.84;5114010;28;20035;-65
2023/01/07 08:55:33;;;;;;;1.23;1.15;;;;;;;4.39;94.99;100202.31;5113810;28;20051;-65
2023/01/07 08:58:03;;;;;;;1.40;1.30;;;;;;;4.48;95.77;100206.00;5113975;28;20497;-65
2023/01/07 09:00:32;;;;;;;0.63;0.63;;;;;;;4.43;95.48;100197.41;5114257;28;20039;-65
2023/01/07 09:03:02;;;;;;;1.93;1.70;;;;;;;4.38;95.55;100200.56;5113870;28;20040;-65
2023/01/07 09:05:31;;;;;;;0.90;0.90;;;;;;;4.40;95.71;100201.47;5114145;28;20139;-65
2023/01/07 09:08:02;;;;;;;3.05;2.78;;;;;;;4.39;95.85;100207.38;5114210;28;20056;-65
2023/01/07 09:10:31;;;;;;;1.45;1.35;;;;;;;4.41;95.95;100205.75;5116106;28;20126;-65
2023/01/07 09:13:00;;;;;;;1.27;1.17;;;;;;;4.42;95.74;100198.19;5117333;28;20031;-65
2023/01/07 09:15:30;;;;;;;3.78;3.42;;;;;;;4.43;96.08;100204.13;5118453;28;20044;-65
2023/01/07 09:17:59;;;;;;;2.53;2.03;;;;;;;4.46;96.00;100199.16;5118287;28;20051;-65
2023/01/07 09:20:28;;;;;;;2.88;2.55;;;;;;;4.48;96.08;100195.00;5117919;28;20489;-65
2023/01/07 09:22:56;;;;;;;2.13;1.60;;;;;;;4.51;95.76;100192.59;5116964;28;20487;-65
2023/01/07 09:25:25;;;;;;;1.33;1.23;;;;;;;4.62;96.36;100192.09;5117781;28;20284;-65
2023/01/07 09:27:54;;;;;;;4.07;3.67;;;;;;;4.78;96.39;100187.50;5118057;28;20295;-65
2023/01/07 09:30:23;;;;;;;3.10;2.58;;;;;;;4.86;96.55;100183.53;5117756;28;20080;-65
2023/01/07 09:32:53;;;;;;;0.70;0.70;;;;;;;4.90;96.73;100176.09;5118085;28;20380;-65
2023/01/07 09:35:22;;;;;;;0.70;0.70;;;;;;;4.86;96.72;100181.88;5118022;28;20039;-65
2023/01/07 09:37:51;;;;;;;0.80;0.80;;;;;;;4.89;96.81;100181.97;5117897;28;20070;-65
2023/01/07 09:40:25;;;;;;;1.03;1.03;;;;;;;4.94;96.79;100175.38;5117468;28;20046;-65
2023/01/07 09:43:02;;;;;;;1.35;1.13;;;;;;;4.97;96.82;100179.66;5117528;28;20081;-66
2023/01/07 09:45:34;;;;;;;4.40;2.90;;;;;;;5.00;96.82;100170.50;5117424;28;20040;-65
2023/01/07 09:48:12;;;;;;;4.82;3.50;;;;;;;5.07;97.02;100177.44;5117738;28;20126;-65
2023/01/07 09:50:53;;;;;;;1.70;1.58;;;;;;;5.13;96.92;100169.19;5117416;28;20554;-65
2023/01/07 09:53:26;;;;;;;0.93;0.90;;;;;;;5.10;96.53;100171.63;5117601;28;20063;-65
2023/01/07 09:55:56;;;;;;;1.40;1.30;;;;;;;5.01;96.50;100154.53;5117101;28;20077;-65
2023/01/07 09:58:45;;;;;;;3.25;2.80;;;;;;;5.13;96.98;100159.94;5117214;28;20070;-65
2023/01/07 10:01:23;;;;;;;3.72;2.92;;;;;;;5.20;96.84;100158.41;5117182;28;20043;-65
2023/01/07 10:04:08;;;;;;;3.63;2.30;;;;;;;5.11;97.02;100159.00;5117441;28;20036;-65
2023/01/07 10:06:47;;;;;;;2.22;1.95;;;;;;;4.99;96.87;100153.59;5117108;28;20134;-65
2023/01/07 10:09:30;;;;;;;2.10;1.97;;;;;;;5.04;96.48;100152.06;5116114;28;20056;-65
2023/01/07 10:12:06;;;;;;;4.85;2.63;;;;;;;5.09;96.62;100134.47;5116952;28;20032;-65
2023/01/07 10:14:50;;;;;;;3.80;1.90;;;;;;;5.20;97.24;100139.03;5117239;28;20122;-65
2023/01/07 10:17:31;;;;;;;1.30;1.20;;;;;;;5.21;97.01;100135.69;5116854;28;20055;-65
2023/01/07 10:20:08;;;;;;;1.88;1.77;;;;;;;5.25;97.07;100132.44;5116866;28;20127;-65
2023/01/07 10:22:43;;;;;;;0.40;0.40;;;;;;;5.29;96.90;100134.22;5116308;28;20112;-65
2023/01/07 10:25:20;;;;;;;1.17;1.08;;;;;;;5.31;97.10;100130.06;5117003;28;20070;-65
2023/01/07 10:27:52;;;;;;;1.88;1.70;;;;;;;5.41;97.22;100121.91;5116655;28;20047;-65
2023/01/07 10:30:25;;;;;;;1.73;1.55;;;;;;;5.50;97.26;100117.88;5116866;28;20497;-66
2023/01/07 10:33:01;;;;;;;1.55;1.45;;;;;;;5.52;97.25;100111.22;5116614;28;20055;-66
2023/01/07 10:35:35;;;;;;;1.42;1.33;;;;;;;5.57;97.25;100113.03;5116771;28;20036;-65
2023/01/07 10:38:05;;;;;;;2.30;2.10;;;;;;;5.67;97.56;100116.66;5115933;28;20071;-65
2023/01/07 10:40:41;;;;;;;1.20;1.15;;;;;;;5.74;96.95;100103.34;5116659;28;20100;-66
2023/01/07 10:43:31;;;;;;;2.17;1.92;;;;;;;5.85;97.05;100097.78;5116430;28;20051;-65
2023/01/07 10:46:15;;;;;;;1.08;1.05;;;;;;;5.95;96.90;100103.94;5116329;28;20130;-65
2023/01/07 10:49:08;;;;;;;0.90;0.90;;;;;;;5.98;97.49;100098.91;5116268;28;20501;-65
2023/01/07 10:51:59;;;;;;;1.65;0.95;;;;;;;6.04;97.03;100104.13;5117173;28;20474;-65
2023/01/07 10:54:45;;;;;;;1.60;1.50;;;;;;;6.10;97.35;100109.34;5115906;28;20060;-65
2023/01/07 10:57:18;;;;;;;0.45;0.45;;;;;;;6.22;97.41;100104.56;5116063;28;20040;-65
2023/01/07 10:59:50;;;;;;;1.02;0.90;;;;;;;6.32;97.22;100106.50;5116034;28;20063;-65
2023/01/07 11:02:22;;;;;;;1.48;1.35;;;;;;;6.36;96.70;100093.06;5115965;28;20489;-65
2023/01/07 11:04:53;;;;;;;1.50;1.40;;;;;;;6.38;96.88;100096.47;5115966;28;20046;-65
2023/01/07 11:07:33;;;;;;;3.05;2.72;;;;;;;6.37;96.59;100084.63;5115976;28;20524;-65
2023/01/07 11:10:05;;;;;;;1.67;1.58;;;;;;;6.44;97.16;100091.56;5115823;28;20507;-65
2023/01/07 11:12:39;;;;;;;1.63;1.48;;;;;;;6.49;96.70;100087.44;5116355;28;20035;-65
2023/01/07 11:15:17;;;;;;;4.43;2.60;;;;;;;6.45;96.55;100080.59;5115710;28;20046;-65
2023/01/07 11:17:49;;;;;;;1.77;1.45;;;;;;;6.43;95.98;100089.00;5115741;28;20048;-65
2023/01/07 11:20:44;;;;;;;3.95;2.30;;;;;;;6.56;96.53;100086.75;5115665;28;20056;-65
2023/01/07 11:23:35;;;;;;;1.77;1.67;;;;;;;6.61;96.39;100090.25;5115712;28;20043;-65
2023/01/07 11:26:10;;;;;;;1.83;1.58;;;;;;;6.64;95.79;100074.25;5115643;28;20047;-65
2023/01/07 11:28:48;;;;;;;4.43;1.80;;;;;;;6.71;96.13;100076.09;5115401;28;20074;-65
2023/01/07 11:31:18;;;;;;;2.38;1.83;;;;;;;6.73;95.75;100075.28;5115392;28;20054;-65
2023/01/07 11:33:50;;;;;;;2.10;1.45;;;;;;;6.75;96.29;100068.56;5114662;28;20059;-65
2023/01/07 11:36:42;;;;;;;2.00;1.80;;;;;;;6.77;95.30;100060.16;5115326;28;20056;-65
2023/01/07 11:39:20;;;;;;;2.50;2.30;;;;;;;6.69;95.64;100058.28;5115326;28;20050;-65
2023/01/07 11:41:55;;;;;;;1.55;1.45;;;;;;;6.72;95.24;100058.34;5115251;28;20046;-65
2023/01/07 11:44:25;;;;;;;1.42;1.27;;;;;;;6.77;95.28;100052.53;5114846;28;20043;-65
2023/01/07 11:46:55;;;;;;;1.85;1.55;;;;;;;6.74;95.42;100048.25;5114953;28;20044;-65
2023/01/07 11:49:25;;;;;;;;;;;;;;;6.74;95.79;100056.69;5115648;28;20051;-65
2023/01/07 11:51:54;;;;;;;0.65;0.65;;;;;;;6.77;95.80;100044.94;5115263;28;19920;-65
2023/01/07 11:54:25;;;;;;;;;;;;;;;6.78;95.00;100050.03;5115352;28;20090;-65
2023/01/07 11:57:12;;;;;;;2.17;1.85;;;;;;;6.72;95.15;100040.59;5115530;28;19924;-64
2023/01/07 11:59:40;;;;;;;3.65;2.28;;;;;;;6.74;94.89;100046.56;5115193;28;20502;-65
2023/01/07 12:02:24;;;;;;;0.90;0.83;;;;;;;6.68;95.40;100035.44;5114800;28;20084;-65